createdAt,value
2019-05-10T00:02:23.343Z,98086.20
2019-05-10T00:05:17.417Z,98088.04
2019-05-10T00:08:12.646Z,98090.14
2019-05-10T00:10:52.363Z,98085.58
2019-05-10T00:13:27.597Z,98087.14
2019-05-10T00:16:03.247Z,98084.92
2019-05-10T00:18:40.227Z,98086.32
2019-05-10T00:21:20.646Z,98090.52
2019-05-10T00:23:55.413Z,98080.96
2019-05-10T00:26:30.342Z,98077.52
2019-05-10T00:29:08.452Z,98077.19
2019-05-10T00:31:45.228Z,98081.34
2019-05-10T00:34:24.047Z,98080.84
2019-05-10T00:37:01.332Z,98080.48
2019-05-10T00:39:39.439Z,98077.99
2019-05-10T00:42:17.344Z,98078.34
2019-05-10T00:44:53.913Z,98082.41
2019-05-10T00:47:31.915Z,98078.13
2019-05-10T00:50:10.427Z,98079.48
2019-05-10T00:52:47.823Z,98076.97
2019-05-10T00:55:27.553Z,98077.67
2019-05-10T00:58:05.867Z,98070.61
2019-05-10T01:00:40.600Z,98071.95
2019-05-10T01:03:17.650Z,98072.63
2019-05-10T01:05:55.164Z,98068.55
2019-05-10T01:08:31.647Z,98075.09
2019-05-10T01:11:09.327Z,98072.25
2019-05-10T01:13:47.229Z,98070.77
2019-05-10T01:16:23.676Z,98079.82
2019-05-10T01:18:59.758Z,98085.03
2019-05-10T01:21:36.706Z,98082.66
2019-05-10T01:24:15.058Z,98075.13
2019-05-10T01:26:51.653Z,98079.72
2019-05-10T01:29:29.816Z,98077.66
2019-05-10T01:32:08.433Z,98077.66
2019-05-10T01:34:46.033Z,98085.11
2019-05-10T01:37:24.437Z,98089.75
2019-05-10T01:40:02.953Z,98090.64
2019-05-10T01:42:39.322Z,98093.34
2019-05-10T01:45:18.342Z,98097.41
2019-05-10T01:47:55.019Z,98103.20
2019-05-10T01:50:33.227Z,98099.56
2019-05-10T01:53:10.819Z,98095.64
2019-05-10T01:55:52.115Z,98096.27
2019-05-10T01:58:27.847Z,98084.98
2019-05-10T02:01:05.232Z,98090.44
2019-05-10T02:03:43.462Z,98090.52
2019-05-10T02:06:20.932Z,98102.72
2019-05-10T02:08:57.817Z,98103.94
2019-05-10T02:11:36.429Z,98103.29
2019-05-10T02:14:15.643Z,98103.60
2019-05-10T02:16:49.052Z,98108.48
2019-05-10T02:19:21.521Z,98106.26
2019-05-10T02:21:55.023Z,98106.73
2019-05-10T02:24:28.309Z,98114.12
2019-05-10T02:27:03.638Z,98110.58
2019-05-10T02:29:39.811Z,98107.85
2019-05-10T02:32:15.993Z,98113.46
2019-05-10T02:34:50.614Z,98114.09
2019-05-10T02:37:28.505Z,98112.41
2019-05-10T02:40:06.915Z,98114.91
2019-05-10T02:42:44.507Z,98128.79
2019-05-10T02:45:24.148Z,98120.73
2019-05-10T02:48:01.244Z,98124.50
2019-05-10T02:50:37.670Z,98124.50
2019-05-10T02:53:12.318Z,98132.20
2019-05-10T02:55:47.553Z,98126.77
2019-05-10T02:58:22.596Z,98129.53
2019-05-10T03:00:58.543Z,98127.85
2019-05-10T03:03:34.645Z,98133.88
2019-05-10T03:06:10.657Z,98132.84
2019-05-10T03:09:08.213Z,98131.94
2019-05-10T03:11:52.159Z,98133.37
2019-05-10T03:14:29.345Z,98135.79
2019-05-10T03:17:03.865Z,98132.91
2019-05-10T03:19:37.464Z,98130.66
2019-05-10T03:22:11.165Z,98126.96
2019-05-10T03:24:44.264Z,98136.81
2019-05-10T03:27:21.438Z,98138.09
2019-05-10T03:29:56.470Z,98138.67
2019-05-10T03:32:30.091Z,98139.49
2019-05-10T03:35:07.656Z,98141.87
2019-05-10T03:37:42.078Z,98141.16
2019-05-10T03:40:14.548Z,98138.75
2019-05-10T03:42:47.027Z,98139.48
2019-05-10T03:45:20.118Z,98145.28
2019-05-10T03:47:52.177Z,98143.98
2019-05-10T03:50:24.234Z,98142.65
2019-05-10T03:52:56.510Z,98142.72
2019-05-10T03:55:28.949Z,98147.69
2019-05-10T03:58:03.641Z,98159.33
2019-05-10T04:00:41.814Z,98151.88
2019-05-10T04:03:17.292Z,98156.05
2019-05-10T04:05:51.794Z,98161.67
2019-05-10T04:08:29.269Z,98153.47
2019-05-10T04:11:04.814Z,98155.56
2019-05-10T04:13:40.974Z,98163.13
2019-05-10T04:16:16.424Z,98167.20
2019-05-10T04:18:52.574Z,98172.03
2019-05-10T04:21:28.690Z,98181.29
2019-05-10T04:24:04.805Z,98179.35
2019-05-10T04:26:41.051Z,98181.91
2019-05-10T04:29:15.976Z,98189.45
2019-05-10T04:31:52.754Z,98194.52
2019-05-10T04:34:30.040Z,98190.58
2019-05-10T04:37:05.385Z,98194.94
2019-05-10T04:39:43.589Z,98196.48
2019-05-10T04:42:20.567Z,98197.03
2019-05-10T04:44:59.289Z,98201.29
2019-05-10T04:47:37.602Z,98206.25
2019-05-10T04:50:16.434Z,98200.93
2019-05-10T04:52:51.914Z,98211.17
2019-05-10T04:55:27.312Z,98212.09
2019-05-10T04:58:06.442Z,98210.78
2019-05-10T05:00:44.324Z,98211.66
2019-05-10T05:03:22.125Z,98216.73
2019-05-10T05:05:59.828Z,98215.75
2019-05-10T05:08:49.882Z,98213.16
2019-05-10T05:11:24.888Z,98212.88
2019-05-10T05:14:03.054Z,98227.16
2019-05-10T05:16:41.049Z,98231.69
2019-05-10T05:19:18.327Z,98227.56
2019-05-10T05:21:54.100Z,98234.05
2019-05-10T05:24:28.505Z,98241.02
2019-05-10T05:27:08.353Z,98246.63
2019-05-10T05:29:49.017Z,98253.58
2019-05-10T05:32:25.482Z,98253.02
2019-05-10T05:35:02.660Z,98266.66
2019-05-10T05:37:41.087Z,98262.98
2019-05-10T05:40:18.162Z,98260.63
2019-05-10T05:42:54.011Z,98265.59
2019-05-10T05:45:34.155Z,98268.25
2019-05-10T05:48:07.864Z,98271.03
2019-05-10T05:50:53.554Z,98279.58
2019-05-10T05:53:42.140Z,98285.25
2019-05-10T05:56:23.582Z,98291.14
2019-05-10T05:59:00.666Z,98304.98
2019-05-10T06:01:37.919Z,98301.16
2019-05-10T06:04:14.640Z,98306.25
2019-05-10T06:06:53.736Z,98314.43
2019-05-10T06:09:37.806Z,98319.67
2019-05-10T06:12:14.235Z,98325.58
2019-05-10T06:14:52.415Z,98323.84
2019-05-10T06:17:32.422Z,98319.58
2019-05-10T06:20:12.573Z,98330.38
2019-05-10T06:23:07.472Z,98334.25
2019-05-10T06:25:43.534Z,98332.67
2019-05-10T06:28:56.267Z,98340.67
2019-05-10T06:31:05.062Z,98333.27
2019-05-10T06:33:50.919Z,98334.58
2019-05-10T06:36:30.287Z,98331.27
2019-05-10T06:39:08.390Z,98338.48
2019-05-10T06:47:35.015Z,98333.68
2019-05-10T06:50:07.663Z,98332.42
2019-05-10T06:52:38.315Z,98336.23
2019-05-10T06:55:08.961Z,98326.76
2019-05-10T06:57:39.676Z,98333.45
2019-05-10T07:00:11.316Z,98334.27
2019-05-10T07:02:41.981Z,98334.80
2019-05-10T07:05:13.104Z,98330.77
2019-05-10T07:07:45.355Z,98328.80
2019-05-10T07:10:19.627Z,98337.92
2019-05-10T07:12:48.571Z,98328.50
2019-05-10T07:15:19.998Z,98328.00
2019-05-10T07:17:50.656Z,98334.15
2019-05-10T07:20:23.573Z,98328.19
2019-05-10T07:22:53.654Z,98325.93
2019-05-10T07:25:24.138Z,98329.27
2019-05-10T07:27:54.717Z,98335.12
2019-05-10T07:30:36.842Z,98336.37
2019-05-10T07:33:07.556Z,98341.92
2019-05-10T07:35:38.797Z,98338.53
2019-05-10T07:38:09.753Z,98339.40
2019-05-10T07:40:40.358Z,98342.70
2019-05-10T07:43:11.001Z,98342.50
2019-05-10T07:45:41.654Z,98344.42
2019-05-10T07:48:12.187Z,98347.39
2019-05-10T07:50:49.796Z,98350.41
2019-05-10T07:53:16.180Z,98357.66
2019-05-10T07:55:47.445Z,98359.36
2019-05-10T07:58:18.021Z,98363.50
2019-05-10T08:00:48.441Z,98367.53
2019-05-10T08:03:23.743Z,98369.61
2019-05-10T08:05:56.937Z,98367.36
2019-05-10T08:08:23.818Z,98372.47
2019-05-10T08:10:54.377Z,98376.38
2019-05-10T08:13:25.313Z,98372.46
2019-05-10T08:15:56.074Z,98373.92
2019-05-10T08:18:29.170Z,98374.73
2019-05-10T08:21:02.462Z,98383.23
2019-05-10T08:23:31.695Z,98377.36
2019-05-10T08:26:04.447Z,98387.42
2019-05-10T08:28:37.890Z,98389.00
2019-05-10T08:31:07.393Z,98391.62
2019-05-10T08:33:38.005Z,98391.97
2019-05-10T08:36:08.708Z,98395.00
2019-05-10T08:38:39.718Z,98398.91
2019-05-10T08:41:14.733Z,98398.19
2019-05-10T08:43:44.020Z,98398.94
2019-05-10T08:46:14.708Z,98410.36
2019-05-10T08:48:53.088Z,98410.81
2019-05-10T08:51:19.348Z,98403.63
2019-05-10T08:53:53.495Z,98411.80
2019-05-10T08:56:24.199Z,98414.95
2019-05-10T08:58:54.812Z,98417.34
2019-05-10T09:01:30.167Z,98423.44
2019-05-10T09:04:00.879Z,98429.00
2019-05-10T09:06:30.004Z,98437.61
2019-05-10T09:09:03.571Z,98429.66
2019-05-10T09:11:33.009Z,98436.59
2019-05-10T09:14:03.812Z,98430.51
2019-05-10T09:16:43.134Z,98439.75
2019-05-10T09:19:06.784Z,98445.58
2019-05-10T09:21:41.308Z,98438.47
2019-05-10T09:24:09.786Z,98443.19
2019-05-10T09:26:41.825Z,98439.48
2019-05-10T09:29:12.689Z,98450.78
2019-05-10T09:31:45.934Z,98443.84
2019-05-10T09:34:15.740Z,98448.36
2019-05-10T09:36:47.190Z,98456.97
2019-05-10T09:39:21.794Z,98458.02
2019-05-10T09:41:52.839Z,98462.53
2019-05-10T09:44:22.975Z,98466.14
2019-05-10T09:46:53.555Z,98466.12
2019-05-10T09:49:24.241Z,98462.05
2019-05-10T09:51:55.132Z,98463.42
2019-05-10T09:54:29.356Z,98462.95
2019-05-10T09:56:58.149Z,98462.84
2019-05-10T09:59:28.816Z,98477.06
2019-05-10T10:01:59.467Z,98477.31
2019-05-10T10:04:30.052Z,98482.22
2019-05-10T10:07:00.669Z,98490.50
2019-05-10T10:09:37.337Z,98490.89
2019-05-10T10:12:03.684Z,98494.83
2019-05-10T10:14:39.386Z,98507.77
2019-05-10T10:17:08.243Z,98492.30
2019-05-10T10:19:40.685Z,98501.62
2019-05-10T10:22:13.266Z,98497.54
2019-05-10T10:24:49.145Z,98499.96
2019-05-10T10:27:17.194Z,98502.66
2019-05-10T10:29:48.029Z,98509.39
2019-05-10T10:32:19.333Z,98504.98
2019-05-10T10:34:54.079Z,98502.88
2019-05-10T10:37:28.258Z,98506.55
2019-05-10T10:40:00.715Z,98503.83
2019-05-10T10:42:27.337Z,98505.39
2019-05-10T10:44:58.154Z,98509.09
2019-05-10T10:47:32.092Z,98519.44
2019-05-10T10:50:03.041Z,98519.66
2019-05-10T10:52:33.674Z,98517.00
2019-05-10T10:55:10.319Z,98512.08
2019-05-10T10:57:37.906Z,98514.55
2019-05-10T11:00:10.206Z,98519.34
2019-05-10T11:02:41.819Z,98519.58
2019-05-10T11:05:12.875Z,98522.03
2019-05-10T11:07:47.334Z,98514.25
2019-05-10T11:10:22.002Z,98517.84
2019-05-10T11:12:51.469Z,98516.98
2019-05-10T11:15:28.244Z,98521.13
2019-05-10T11:17:56.129Z,98522.50
2019-05-10T11:20:27.342Z,98526.00
2019-05-10T11:22:58.013Z,98522.16
2019-05-10T11:25:28.619Z,98530.94
2019-05-10T11:28:01.765Z,98531.77
2019-05-10T11:30:32.453Z,98531.66
2019-05-10T11:33:29.683Z,98532.39
2019-05-10T11:35:57.668Z,98534.47
2019-05-10T11:38:27.888Z,98536.06
2019-05-10T11:40:58.778Z,98540.83
2019-05-10T11:43:31.317Z,98536.80
2019-05-10T11:46:01.799Z,98539.42
2019-05-10T11:48:37.169Z,98536.67
2019-05-10T11:51:05.762Z,98538.54
2019-05-10T11:53:37.205Z,98537.02
2019-05-10T11:56:13.655Z,98534.73
2019-05-10T11:58:49.833Z,98529.59
2019-05-10T12:01:17.317Z,98528.20
2019-05-10T12:03:44.766Z,98530.33
2019-05-10T12:06:15.441Z,98534.20
2019-05-10T12:08:46.093Z,98534.28
2019-05-10T12:11:31.901Z,98525.97
2019-05-10T12:13:56.790Z,98535.04
2019-05-10T12:16:21.581Z,98535.45
2019-05-10T12:21:24.615Z,98533.62
2019-05-10T12:23:56.645Z,98539.50
2019-05-10T12:26:27.772Z,98534.02
2019-05-10T12:29:11.623Z,98539.53
2019-05-10T12:31:32.433Z,98539.59
2019-05-10T12:34:09.022Z,98540.14
2019-05-10T12:36:35.740Z,98548.28
2019-05-10T12:39:11.396Z,98546.34
2019-05-10T12:41:48.417Z,98552.70
2019-05-10T12:44:14.123Z,98547.12
2019-05-10T12:46:44.864Z,98549.83
2019-05-10T12:49:15.495Z,98549.48
2019-05-10T12:51:46.113Z,98551.55
2019-05-10T12:54:18.598Z,98551.56
2019-05-10T12:56:49.336Z,98561.58
2019-05-10T12:59:20.014Z,98554.06
2019-05-10T13:01:50.709Z,98559.45
2019-05-10T13:04:27.601Z,98563.77
2019-05-10T13:06:54.176Z,98573.48
2019-05-10T13:09:38.490Z,98572.38
2019-05-10T13:12:04.080Z,98580.75
2019-05-10T13:14:29.947Z,98582.27
2019-05-10T13:17:03.928Z,98575.25
2019-05-10T13:19:33.025Z,98572.27
2019-05-10T13:22:07.152Z,98572.63
2019-05-10T13:24:36.385Z,98571.12
2019-05-10T13:27:07.382Z,98575.02
2019-05-10T13:29:40.678Z,98580.09
2019-05-10T13:32:14.915Z,98574.59
2019-05-10T13:34:44.734Z,98577.63
2019-05-10T13:37:23.414Z,98588.67
2019-05-10T13:39:48.111Z,98578.05
2019-05-10T13:42:19.044Z,98586.14
2019-05-10T13:44:49.839Z,98580.41
2019-05-10T13:47:20.783Z,98586.38
2019-05-10T13:49:51.850Z,98580.07
2019-05-10T13:52:22.529Z,98583.59
2019-05-10T13:55:23.883Z,98584.23
2019-05-10T13:57:54.542Z,98582.55
2019-05-10T14:00:33.077Z,98588.30
2019-05-10T14:02:57.825Z,98594.98
2019-05-10T14:05:28.487Z,98598.05
2019-05-10T14:08:00.331Z,98593.75
2019-05-10T14:10:31.047Z,98601.23
2019-05-10T14:13:03.810Z,98601.23
2019-05-10T14:15:34.726Z,98604.39
2019-05-10T14:18:07.692Z,98605.10
2019-05-10T14:20:38.391Z,98606.69
2019-05-10T14:23:09.238Z,98606.27
2019-05-10T14:25:39.813Z,98623.86
2019-05-10T14:28:15.830Z,98624.34
2019-05-10T14:30:46.350Z,98627.60
2019-05-10T14:33:17.265Z,98638.55
2019-05-10T14:35:48.915Z,98640.27
2019-05-10T14:38:23.071Z,98639.98
2019-05-10T14:40:54.021Z,98641.42
2019-05-10T14:43:24.710Z,98649.70
2019-05-10T14:45:55.361Z,98644.02
2019-05-10T14:48:45.156Z,98647.67
2019-05-10T14:51:15.880Z,98652.42
2019-05-10T14:53:46.675Z,98642.56
2019-05-10T14:56:17.538Z,98650.86
2019-05-10T14:58:48.192Z,98648.36
2019-05-10T15:01:18.749Z,98649.70
2019-05-10T15:03:49.420Z,98650.02
2019-05-10T15:06:20.113Z,98656.27
2019-05-10T15:08:51.251Z,98652.66
2019-05-10T15:11:26.579Z,98655.30
2019-05-10T15:13:54.202Z,98660.20
2019-05-10T15:16:27.219Z,98660.36
2019-05-10T15:18:57.330Z,98660.27
2019-05-10T15:21:27.894Z,98667.47
2019-05-10T15:24:00.984Z,98663.07
2019-05-10T15:26:37.402Z,98662.02
2019-05-10T15:29:07.455Z,98668.20
2019-05-10T15:31:38.199Z,98672.52
2019-05-10T15:34:09.142Z,98674.69
2019-05-10T15:36:40.942Z,98680.67
2019-05-10T15:39:12.666Z,98678.48
2019-05-10T15:41:43.334Z,98676.79
2019-05-10T15:44:15.006Z,98674.41
2019-05-10T15:46:45.774Z,98681.19
2019-05-10T15:49:22.667Z,98675.87
2019-05-10T15:51:54.654Z,98680.20
2019-05-10T15:54:21.089Z,98681.10
2019-05-10T15:56:55.225Z,98681.77
2019-05-10T15:59:24.303Z,98694.83
2019-05-10T16:02:06.910Z,98699.19
2019-05-10T16:04:37.629Z,98690.91
2019-05-10T16:07:09.456Z,98693.05
2019-05-10T16:09:40.709Z,98696.41
2019-05-10T16:12:11.401Z,98692.76
2019-05-10T16:14:45.415Z,98685.92
2019-05-10T16:17:17.510Z,98690.08
2019-05-10T16:19:50.387Z,98697.14
2019-05-10T16:22:19.352Z,98690.80
2019-05-10T16:24:50.051Z,98687.37
2019-05-10T16:27:20.756Z,98685.74
2019-05-10T16:29:55.288Z,98694.18
2019-05-10T16:32:29.392Z,98701.21
2019-05-10T16:35:05.939Z,98700.41
2019-05-10T16:37:33.161Z,98714.76
2019-05-10T16:40:03.916Z,98712.15
2019-05-10T16:42:36.856Z,98702.95
2019-05-10T16:45:08.307Z,98715.92
2019-05-10T16:47:44.095Z,98714.61
2019-05-10T16:50:15.035Z,98719.67
2019-05-10T16:52:45.546Z,98719.49
2019-05-10T16:55:16.437Z,98727.69
2019-05-10T16:57:50.636Z,98718.48
2019-05-10T17:00:21.704Z,98717.08
2019-05-10T17:02:52.369Z,98723.45
2019-05-10T17:05:26.320Z,98726.58
2019-05-10T17:07:58.767Z,98727.20
2019-05-10T17:10:32.993Z,98733.09
2019-05-10T17:13:04.916Z,98737.59
2019-05-10T17:15:39.854Z,98739.52
2019-05-10T17:18:10.801Z,98740.67
2019-05-10T17:20:45.503Z,98734.78
2019-05-10T17:23:15.976Z,98739.30
2019-05-10T17:25:49.067Z,98746.55
2019-05-10T17:28:21.973Z,98743.23
2019-05-10T17:30:52.751Z,98744.02
2019-05-10T17:33:23.561Z,98745.68
2019-05-10T17:36:07.515Z,98744.86
2019-05-10T17:38:26.984Z,98751.09
2019-05-10T17:41:07.900Z,98751.98
2019-05-10T17:43:40.869Z,98755.17
2019-05-10T17:46:18.533Z,98758.22
2019-05-10T17:48:47.208Z,98758.63
2019-05-10T17:51:22.881Z,98754.96
2019-05-10T17:54:01.429Z,98759.51
2019-05-10T17:56:32.924Z,98762.23
2019-05-10T17:59:05.996Z,98763.84
2019-05-10T18:01:47.301Z,98765.38
2019-05-10T18:04:21.710Z,98767.04
2019-05-10T18:07:02.728Z,98768.97
2019-05-10T18:09:37.645Z,98776.30
2019-05-10T18:12:08.351Z,98784.95
2019-05-10T18:14:39.914Z,98787.28
2019-05-10T18:17:10.546Z,98787.23
2019-05-10T18:19:41.354Z,98790.91
2019-05-10T18:22:12.755Z,98788.27
2019-05-10T18:24:44.440Z,98783.70
2019-05-10T18:27:15.593Z,98785.89
2019-05-10T18:29:46.388Z,98790.59
2019-05-10T18:32:18.154Z,98791.38
2019-05-10T18:34:50.466Z,98799.62
2019-05-10T18:37:23.374Z,98796.25
2019-05-10T18:39:54.852Z,98801.38
2019-05-10T18:42:27.765Z,98809.31
2019-05-10T18:45:01.060Z,98812.06
2019-05-10T18:47:37.820Z,98809.75
2019-05-10T18:50:09.131Z,98819.63
2019-05-10T18:52:44.185Z,98821.69
2019-05-10T18:55:19.620Z,98830.23
2019-05-10T18:57:53.832Z,98832.83
2019-05-10T19:00:25.310Z,98837.23
2019-05-10T19:03:03.016Z,98849.45
2019-05-10T19:05:39.918Z,98851.09
2019-05-10T19:08:22.556Z,98844.09
2019-05-10T19:11:03.263Z,98854.45
2019-05-10T19:13:46.770Z,98854.17
2019-05-10T19:16:11.762Z,98856.72
2019-05-10T19:18:43.545Z,98855.30
2019-05-10T19:21:15.838Z,98860.05
2019-05-10T19:23:52.270Z,98865.55
2019-05-10T19:26:31.643Z,98878.52
2019-05-10T19:29:05.422Z,98872.70
2019-05-10T19:31:41.561Z,98879.55
2019-05-10T19:34:15.487Z,98878.63
2019-05-10T19:36:56.610Z,98878.25
2019-05-10T19:39:31.619Z,98881.31
2019-05-10T19:42:06.564Z,98890.72
2019-05-10T19:44:42.437Z,98895.57
2019-05-10T19:47:19.891Z,98896.59
2019-05-10T19:49:53.439Z,98888.34
2019-05-10T19:52:26.537Z,98885.07
2019-05-10T19:55:01.815Z,98885.75
2019-05-10T19:57:32.634Z,98889.45
2019-05-10T20:00:08.391Z,98893.05
2019-05-10T20:02:39.115Z,98897.59
2019-05-10T20:05:15.620Z,98899.45
2019-05-10T20:07:47.765Z,98895.59
2019-05-10T20:10:18.795Z,98902.66
2019-05-10T20:12:55.225Z,98905.50
2019-05-10T20:15:26.018Z,98906.14
2019-05-10T20:17:56.895Z,98899.92
2019-05-10T20:20:33.061Z,98906.19
2019-05-10T20:23:09.005Z,98899.50
2019-05-10T20:25:46.474Z,98900.58
2019-05-10T20:28:17.581Z,98902.91
2019-05-10T20:30:52.058Z,98902.91
2019-05-10T20:33:31.374Z,98901.33
2019-05-10T20:36:04.606Z,98903.03
2019-05-10T20:38:38.988Z,98904.73
2019-05-10T20:41:16.014Z,98901.92
2019-05-10T20:43:56.165Z,98912.16
2019-05-10T20:46:26.839Z,98906.99
2019-05-10T20:48:58.605Z,98903.76
2019-05-10T20:51:29.378Z,98904.47
2019-05-10T20:54:08.466Z,98916.28
2019-05-10T20:56:41.435Z,98916.28
2019-05-10T20:59:13.369Z,98919.84
2019-05-10T21:01:45.232Z,98914.67
2019-05-10T21:04:15.850Z,98924.84
2019-05-10T21:06:46.469Z,98919.33
2019-05-10T21:09:17.212Z,98919.56
2019-05-10T21:11:47.900Z,98916.80
2019-05-10T21:14:18.533Z,98915.00
2019-05-10T21:16:49.095Z,98917.73
2019-05-10T21:19:20.242Z,98914.67
2019-05-10T21:21:50.900Z,98913.86
2019-05-10T21:24:21.489Z,98911.89
2019-05-10T21:26:52.190Z,98918.70
2019-05-10T21:29:22.780Z,98912.24
2019-05-10T21:31:53.579Z,98913.48
2019-05-10T21:34:24.074Z,98916.94
2019-05-10T21:36:54.760Z,98911.42
2019-05-10T21:39:25.536Z,98915.38
2019-05-10T21:41:56.255Z,98909.98
2019-05-10T21:44:26.919Z,98904.28
2019-05-10T21:46:57.528Z,98904.47
2019-05-10T21:49:28.168Z,98904.70
2019-05-10T21:51:58.750Z,98899.70
2019-05-10T21:54:29.516Z,98908.19
2019-05-10T21:57:00.108Z,98901.70
2019-05-10T21:59:30.874Z,98906.94
2019-05-10T22:02:01.637Z,98911.63
2019-05-10T22:07:12.545Z,98909.20
2019-05-10T22:09:43.185Z,98912.72
2019-05-10T22:12:13.857Z,98910.44
2019-05-10T22:14:44.569Z,98913.33
2019-05-10T22:17:15.216Z,98916.73
2019-05-10T22:19:46.007Z,98918.09
2019-05-10T22:22:16.891Z,98916.73
2019-05-10T22:24:47.504Z,98919.40
2019-05-10T22:27:18.174Z,98917.36
2019-05-10T22:29:49.245Z,98915.22
2019-05-10T22:32:19.765Z,98913.53
2019-05-10T22:34:50.336Z,98923.19
2019-05-10T22:37:21.056Z,98919.39
2019-05-10T22:39:51.789Z,98923.50
2019-05-10T22:42:22.534Z,98919.19
2019-05-10T22:44:53.074Z,98926.08
2019-05-10T22:47:25.491Z,98920.02
2019-05-10T22:49:56.146Z,98925.75
2019-05-10T22:52:26.815Z,98925.54
2019-05-10T22:55:00.341Z,98923.52
2019-05-10T22:57:29.765Z,98922.80
2019-05-10T23:00:00.315Z,98924.62
2019-05-10T23:02:30.810Z,98930.62
2019-05-10T23:05:01.387Z,98933.42
2019-05-10T23:07:32.195Z,98932.22
2019-05-10T23:10:02.898Z,98931.91
2019-05-10T23:12:33.529Z,98932.36
2019-05-10T23:15:04.494Z,98926.64
2019-05-10T23:17:35.225Z,98928.73
2019-05-10T23:20:06.396Z,98922.48
2019-05-10T23:22:37.095Z,98929.11
2019-05-10T23:25:08.031Z,98926.36
2019-05-10T23:27:38.784Z,98918.20
2019-05-10T23:30:09.648Z,98918.18
2019-05-10T23:32:40.196Z,98914.92
2019-05-10T23:35:12.387Z,98916.62
2019-05-10T23:37:42.987Z,98921.13
2019-05-10T23:40:14.614Z,98926.84
2019-05-10T23:42:45.215Z,98925.43
2019-05-10T23:45:15.827Z,98929.98
2019-05-10T23:47:46.353Z,98936.80
2019-05-10T23:50:17.204Z,98936.03
2019-05-10T23:52:47.896Z,98942.08
2019-05-10T23:55:18.507Z,98935.58
2019-05-10T23:57:49.119Z,98935.73
